Helotes, TX (78023)

6:32 AM CDT on October 31, 2014 (GMT -0500)
Helotes Park Terrace | Change Station
CLOSE
Current Station
Personal Weather Station
Location: Helotes, TX
Elevation: 1060 ft
Nearby Weather Stations

Elev 1060 ft 29.57 °N, 98.68 °W | Updated 1 second ago

Rain
Rain
62.8 °F
Feels Like 62.8 °F
N
5.1
Wind Variable Wind from West
Gusts 9.8 mph

Today
High -- | Low -- °F
--% Chance of Precip.
Yesterday
High -- | Low -- °F
Precip. -- in
7:47 AM 6:48 PM
First Quarter, 54% visible
Pressure 30.21 in
Visibility 10.0 miles
Clouds Overcast 4000 ft
Dew Point 60 °F
Humidity 90%
Rainfall 0.76 in
Snow Depth Not available.
UV 0 out of 12
Pollen 4.80 out of 12
Air Quality Not available.
Flu Activity Not available.
METAR K5C1 311115Z AUTO 02005KT 10SM OVC040 17/16 A3021 RMK AO1

More Conditions Fewer Conditions

Pressure 30.21 in
Visibility 10.0 miles
Clouds Overcast 4000 ft
Dew Point 60 °F
Humidity 90%
Rainfall 0.76 in
Snow Depth Not available.
UV 0 out of 12
Pollen 4.80 out of 12
Air Quality Not available.
Flu Activity Not available.
METAR K5C1 311115Z AUTO 02005KT 10SM OVC040 17/16 A3021 RMK AO1

More Conditions Fewer Conditions

Nowcast | as of 5:57 am CDT on October 31, 2014

Patches of rain and isolated showers will end by 7 am. Spotty additional rainfall amounts up to one quarter inch can be expected.

×

10-Day Weather Forecast

Almanac

Astronomy

Oct. 31, 2014 Rise Set
Actual Time
Civil Twilight
Nautical Twilight
Astronomical Twilight
Moon
Length of Visible Light
Length of Day
Tomorrow will be .
, % of the Moon is Illuminated

Today's Extremes

State Highs State Lows

Community

WunderPhotos

Upload Photos

1,766,581 photos uploaded!

WunderBlogs® & News

Nearby

Air Quality

  Air Quality AQ Index Pollutant
Not available.

Snow Depth

Station Depth Elevation

Earthquake Activity

City Distance Mag. Time & Date
Minimum magnitude displayed is 2.5.

Coastal Water Temperatures

Place Temperature

Nearby Weather Stations